Terminal Aerodrome Forecast
Issued by NWS

Home | Current Version | Previous Version | Text Only | Print | Product List | Glossary On
Versions: 1 2 3 4 5 6 7 8 9 10 11 12 13
000
FTUS43 KLSX 032320
TAFCPS
TAF
KCPS 032320Z 0400/0424 VRB03KT P6SM SKC
      TEMPO 0408/0411 5SM BR
     FM041800 18005KT P6SM FEW050=

USA.gov is the U.S. government's official web portal to all federal, state and local government web resources and services.